Arctic - Eastern Arctic: Past 24 Hour Conditions

 

Cape Dorset Airport

08:00 AM EDT 30 April 2017
Disclaimer

This table is a summary of hourly weather conditions for the past 24 hours.
Please note that these observations might not always be representative of weather conditions over their associated marine area.

Date / Time
(EDT)
Wind(knots) Conditions Visibility(km) Pressure(kPa) Air tempC) Relative humidity(%) Dew pointC) Wind Chill
30 April 2017
8:00 W 10 Sunny 16 101.2 -14 82 -16 -22
7:00 W 19 Mainly Sunny 16 101.2 -14 83 -17 -26
6:00 W 12 Cloudy 16 101.2 -14 85 -16 -24
5:00 W 19 Cloudy 16 101.1 -14 84 -16 -26
4:00 W 13 Cloudy 16 101.1 -14 83 -16 -23
3:00 W 18 Cloudy 16 101.1 -14 82 -16 -25
2:00 WNW 16 gust 21 Cloudy 16 101.1 -14 83 -16 -24
1:00 WNW 18 gust 24 Cloudy 16 101.0 -14 81 -16 -25
0:00 W 18 Cloudy 16 101.0 -14 80 -17 -25
29 April 2017
23:00 W 14 Cloudy 16 101.0 -14 80 -17 -24
22:00 W 12 gust 17 Light Snow 16 101.0 -14 82 -17 -24
21:00 WNW 22 gust 28 Sunny 16 100.9 -14 80 -16 -26
20:00 WNW 24 gust 30 Light Snow 15 100.8 -13 85 -15 -25
19:00 WNW 28 gust 36 Sunny 11 100.7 -12 81 -15 -25
18:00 WNW 25 gust 34 Mist 6 100.7 -12 83 -14 -24
17:00 WNW 27 gust 35 Sunny 11 100.6 -12 78 -15 -24
16:00 WNW 27 gust 37 Mist 5 100.6 -12 82 -14 -24
15:00 WNW 27 gust 35 Mist 5 100.5 -12 82 -14 -24
14:00 W 29 gust 37 Haze 5 100.5 -13 82 -15 -26
13:00 WNW 31 gust 37 Drifting Snow 3 100.4 -13 82 -15 -26
12:00 W 28 gust 34 Light Snow 5 100.5 -13 79 -16 -26
11:00 W 25 gust 36 Light Snow 8 100.5 -13 83 -15 -25
10:00 W 24 gust 33 Drifting Snow 3 100.5 -13 82 -16 -26
9:00 WNW 15 gust 25 Sunny 11 100.6 -14 80 -16 -24
8:00 WNW 10 gust 17 Sunny 16 100.6 -13 77 -17 -22

Zoom-in to make a selection

Map of Arctic - Eastern Arctic marine weather areas Baker Lake Airport Chesterfield Inlet Airport Coral Harbour Airport Gjoa Haven Airport Kugaaruk Airport Rankin Inlet Airport Shepherd Bay Airport Whale Cove Airport Arctic Bay Brevoort Island Qikiqtarjuaq Airport Cape Dorset Airport Cape Dyer Cape Hooper Clyde River Airport Grise Fiord Airport Hall Beach Airport Igloolik Airport Iqaluit Airport Longstaff Bluff Pangnirtung Airport Pond Inlet Airport Naujaat Resolute Airport Resolution Island Rowley Island Airport Taloyoak Airport Wager Bay Akulivik Airport Ivujivik Airport Puvirnituq Airport Kangiqsujuaq Airport Kangirsuk Airport Quaqtaq Airport Tasiujaq Airport Cape Kakkiviak Cape Kiglapait Nain Airport Saglek Cape Mercy Kimmirut Airport Aupaluk Airport Salluit Airport Kangiqsualujjuaq Airport Cape Liverpool Fort Ross
Legend:
buoy Buoy
land station Land Station

Arctic - Eastern Arctic Area

Another Region

What we are doing

Date modified: